Time;durP1;ratioP1;P1;durP2;ratioP2;P2;SDS_P1;SDS_P2;PMS_P1;PMS_P2;Temp;Humidity;BMP_temperature;BMP_pressure;BME280_temperature;BME280_humidity;BME280_pressure;Samples;Min_cycle;Max_cycle;Signal;HPM_P1;HPM_P2
2022/12/21 00:01:45;;;;;;;;;;;20.80;50.30;;;;;;5114956;28;19953;-65
2022/12/21 00:04:12;;;;;;;;;;;20.70;50.30;;;;;;5114547;28;19962;-65
2022/12/21 00:06:38;;;;;;;;;;;20.60;52.30;;;;;;5114951;28;19916;-65
2022/12/21 00:09:07;;;;;;;;;;;20.50;50.90;;;;;;5115046;28;20273;-66
2022/12/21 00:11:34;;;;;;;;;;;20.30;52.70;;;;;;5114758;28;20273;-66
2022/12/21 00:14:01;;;;;;;;;;;20.30;52.00;;;;;;5097048;28;19908;-66
2022/12/21 00:16:28;;;;;;;;;;;20.10;51.50;;;;;;5115002;28;19908;-65
2022/12/21 00:18:57;;;;;;;;;;;20.10;51.80;;;;;;5115000;28;19923;-66
2022/12/21 00:21:28;;;;;;;;;;;20.00;51.90;;;;;;5112706;28;20000;-65
2022/12/21 00:23:58;;;;;;;;;;;20.10;51.50;;;;;;5114631;28;20331;-65
2022/12/21 00:26:25;;;;;;;;;;;20.30;53.70;;;;;;5114249;28;19916;-65
2022/12/21 00:28:53;;;;;;;;;;;20.50;51.60;;;;;;5096343;28;19908;-65
2022/12/21 00:31:21;;;;;;;;;;;20.60;50.10;;;;;;5114294;28;19908;-65
2022/12/21 00:33:48;;;;;;;;;;;20.70;50.10;;;;;;5096545;28;19916;-65
2022/12/21 00:36:15;;;;;;;;;;;20.80;51.70;;;;;;5096177;28;19914;-65
2022/12/21 00:38:42;;;;;;;;;;;20.90;49.90;;;;;;5113998;28;20352;-65
2022/12/21 00:41:10;;;;;;;;;;;21.00;49.90;;;;;;5113908;28;19934;-66
2022/12/21 00:43:37;;;;;;;;;;;21.10;50.20;;;;;;5096139;28;19912;-66
2022/12/21 00:46:04;;;;;;;;;;;21.10;49.10;;;;;;5095921;28;20010;-65
2022/12/21 00:48:31;;;;;;;;;;;21.10;50.10;;;;;;5114375;28;19920;-65
2022/12/21 00:51:07;;;;;;;;;;;21.10;47.50;;;;;;5112489;28;19916;-65
2022/12/21 00:53:34;;;;;;;;;;;21.20;48.90;;;;;;5111209;28;20357;-66
2022/12/21 01:40:00;;;;;;;;;;;21.10;50.90;;;;;;5064964;28;20859;-66
2022/12/21 01:42:26;;;;;;;;;;;21.00;52.50;;;;;;5112614;28;20002;-66
2022/12/21 01:44:56;;;;;;;;;;;20.80;53.60;;;;;;5111705;28;19912;-66
2022/12/21 01:47:24;;;;;;;;;;;20.80;54.00;;;;;;5109071;28;19923;-66
2022/12/21 01:49:58;;;;;;;;;;;20.80;54.20;;;;;;5111006;28;19918;-66
2022/12/21 01:52:25;;;;;;;;;;;20.90;54.10;;;;;;5092066;28;19916;-65
2022/12/21 01:54:54;;;;;;;;;;;21.00;55.00;;;;;;5112877;28;19907;-66
2022/12/21 01:57:21;;;;;;;;;;;21.00;54.90;;;;;;5112441;28;19995;-66
2022/12/21 01:59:48;;;;;;;;;;;21.00;56.80;;;;;;5112565;28;19923;-66
2022/12/21 02:02:18;;;;;;;;;;;21.10;54.70;;;;;;5094658;28;19908;-66
2022/12/21 02:04:45;;;;;;;;;;;21.00;55.10;;;;;;5080819;28;19908;-67
2022/12/21 02:07:12;;;;;;;;;;;21.00;57.20;;;;;;5094670;28;19922;-66
2022/12/21 02:09:38;;;;;;;;;;;20.90;54.70;;;;;;5112367;28;20370;-66
2022/12/21 02:12:05;;;;;;;;;;;20.80;55.90;;;;;;5094623;28;19911;-66
2022/12/21 02:14:33;;;;;;;;;;;20.90;55.00;;;;;;5094407;28;20335;-66
2022/12/21 02:17:06;;;;;;;;;;;20.90;55.30;;;;;;5094251;28;19908;-65
2022/12/21 02:19:35;;;;;;;;;;;21.00;55.40;;;;;;5112179;28;20280;-66
2022/12/21 02:22:07;;;;;;;;;;;21.00;55.60;;;;;;5112243;28;19911;-65
2022/12/21 02:24:43;;;;;;;;;;;21.10;53.30;;;;;;5110702;28;19915;-65
2022/12/21 02:27:27;;;;;;;;;;;21.00;53.70;;;;;;5112001;28;19959;-66
2022/12/21 02:30:05;;;;;;;;;;;21.00;53.50;;;;;;5112279;28;19908;-66
2022/12/21 02:32:34;;;;;;;;;;;21.10;54.50;;;;;;5093933;28;20366;-66
2022/12/21 02:35:03;;;;;;;;;;;21.20;55.10;;;;;;5093763;28;19908;-66
2022/12/21 02:37:34;;;;;;;;;;;21.30;55.00;;;;;;5112097;28;19919;-66
2022/12/21 02:40:00;;;;;;;;;;;21.30;54.80;;;;;;5091988;28;19918;-65
2022/12/21 02:45:23;;;;;;;;;;;21.30;52.70;;;;;;5096721;28;20320;-66
2022/12/21 02:47:51;;;;;;;;;;;21.20;53.10;;;;;;5111738;28;19923;-66
2022/12/21 02:50:18;;;;;;;;;;;21.20;53.80;;;;;;5093465;28;19912;-66
2022/12/21 02:52:50;;;;;;;;;;;21.20;50.40;;;;;;5092919;28;19947;-66
2022/12/21 02:55:17;;;;;;;;;;;21.20;54.10;;;;;;5093055;28;19916;-66
2022/12/21 02:57:44;;;;;;;;;;;21.20;52.10;;;;;;5112111;28;19919;-66
2022/12/21 03:00:18;;;;;;;;;;;21.20;52.80;;;;;;5093592;28;19915;-67
2022/12/21 03:06:00;;;;;;;;;;;21.20;53.10;;;;;;5096600;28;19953;-66
2022/12/21 03:08:35;;;;;;;;;;;21.10;51.40;;;;;;5109548;28;19919;-66
2022/12/21 03:11:02;;;;;;;;;;;21.20;53.10;;;;;;5091255;28;20022;-66
2022/12/21 03:13:41;;;;;;;;;;;21.10;53.10;;;;;;5097435;28;19908;-66
2022/12/21 03:16:10;;;;;;;;;;;21.00;50.60;;;;;;5105455;28;19912;-65
2022/12/21 03:18:43;;;;;;;;;;;21.00;52.70;;;;;;5098141;28;20594;-65
2022/12/21 03:21:14;;;;;;;;;;;21.10;52.40;;;;;;5092776;28;19912;-65
2022/12/21 03:23:46;;;;;;;;;;;21.10;52.40;;;;;;5068639;28;19916;-64
2022/12/21 03:26:15;;;;;;;;;;;21.00;51.80;;;;;;5108375;28;19920;-65
2022/12/21 03:28:42;;;;;;;;;;;21.00;52.30;;;;;;5090944;28;20006;-65
2022/12/21 03:31:12;;;;;;;;;;;21.00;54.50;;;;;;5090491;28;19927;-65
2022/12/21 03:33:40;;;;;;;;;;;21.00;54.00;;;;;;5090824;28;19908;-66
2022/12/21 03:36:10;;;;;;;;;;;21.00;54.20;;;;;;5105851;28;19912;-65
2022/12/21 03:38:38;;;;;;;;;;;21.10;54.80;;;;;;5089937;28;19947;-64
2022/12/21 03:41:05;;;;;;;;;;;21.00;54.00;;;;;;5092095;28;19923;-65
2022/12/21 03:43:33;;;;;;;;;;;21.00;55.00;;;;;;5088790;28;19919;-65
2022/12/21 03:46:00;;;;;;;;;;;20.80;54.00;;;;;;5110822;28;19912;-65
2022/12/21 03:48:36;;;;;;;;;;;20.80;55.30;;;;;;5095522;28;20374;-65
2022/12/21 03:51:04;;;;;;;;;;;20.90;56.60;;;;;;5095596;28;19922;-65
2022/12/21 03:53:45;;;;;;;;;;;21.00;54.70;;;;;;5096683;28;19908;-65
2022/12/21 03:56:13;;;;;;;;;;;21.00;55.50;;;;;;5101895;28;20366;-65
2022/12/21 03:58:40;;;;;;;;;;;21.00;54.90;;;;;;5096901;28;20384;-67
2022/12/21 04:01:17;;;;;;;;;;;21.00;55.30;;;;;;5101552;28;19916;-66
2022/12/21 04:03:43;;;;;;;;;;;20.90;55.20;;;;;;5096908;28;19932;-65
2022/12/21 04:06:19;;;;;;;;;;;20.90;55.50;;;;;;5096346;28;19908;-65
2022/12/21 04:08:46;;;;;;;;;;;20.80;56.00;;;;;;5096742;28;19911;-64
2022/12/21 04:13:59;;;;;;;;;;;20.80;56.10;;;;;;5072767;28;19908;-65
2022/12/21 04:16:26;;;;;;;;;;;20.80;56.80;;;;;;5096182;28;19915;-65
2022/12/21 04:21:37;;;;;;;;;;;21.00;54.80;;;;;;5113914;28;20007;-65
2022/12/21 04:29:33;;;;;;;;;;;20.90;53.90;;;;;;5102081;28;20234;-65
2022/12/21 04:32:00;;;;;;;;;;;20.80;54.50;;;;;;5114059;28;19911;-64
2022/12/21 04:34:26;;;;;;;;;;;20.80;54.30;;;;;;5114195;28;19981;-65
2022/12/21 04:39:38;;;;;;;;;;;20.80;53.80;;;;;;5109971;28;20000;-65
2022/12/21 04:42:04;;;;;;;;;;;20.90;54.90;;;;;;5094713;28;20362;-65
2022/12/21 04:44:31;;;;;;;;;;;20.90;54.30;;;;;;5113688;28;19943;-65
2022/12/21 04:46:58;;;;;;;;;;;20.80;54.90;;;;;;5114122;28;19973;-65
2022/12/21 04:49:24;;;;;;;;;;;20.80;55.20;;;;;;5111292;28;19963;-64
2022/12/21 04:51:51;;;;;;;;;;;20.80;55.10;;;;;;5104580;28;19923;-64
2022/12/21 04:54:18;;;;;;;;;;;20.80;54.80;;;;;;5114019;28;19920;-64
2022/12/21 04:56:45;;;;;;;;;;;20.80;55.30;;;;;;5093709;28;19961;-65
2022/12/21 05:26:54;;;;;;;;;;;20.90;58.90;;;;;;5082381;28;20424;-64
2022/12/21 05:29:21;;;;;;;;;;;20.90;58.00;;;;;;5109599;28;19967;-64
2022/12/21 05:31:47;;;;;;;;;;;20.90;57.90;;;;;;5097640;28;19926;-64
2022/12/21 05:34:14;;;;;;;;;;;21.00;57.00;;;;;;5088797;28;19966;-64
2022/12/21 05:36:40;;;;;;;;;;;20.90;56.10;;;;;;5103751;28;19929;-62
2022/12/21 05:39:07;;;;;;;;;;;21.00;55.00;;;;;;5110630;28;19980;-64
2022/12/21 05:41:34;;;;;;;;;;;21.00;54.80;;;;;;5106285;28;19916;-64
2022/12/21 05:44:00;;;;;;;;;;;21.00;55.80;;;;;;5108020;28;20289;-66
2022/12/21 05:46:27;;;;;;;;;;;21.00;55.70;;;;;;5110302;28;19923;-66
2022/12/21 05:48:54;;;;;;;;;;;21.00;56.20;;;;;;5110709;28;20342;-65
2022/12/21 05:51:21;;;;;;;;;;;21.00;56.20;;;;;;5101497;28;19957;-66
2022/12/21 05:53:48;;;;;;;;;;;20.90;56.60;;;;;;5109969;28;19923;-66
2022/12/21 05:56:14;;;;;;;;;;;20.90;56.40;;;;;;5109618;28;19916;-64
2022/12/21 05:58:41;;;;;;;;;;;20.90;56.40;;;;;;5109151;28;19916;-65
2022/12/21 06:01:08;;;;;;;;;;;20.80;56.00;;;;;;5099731;28;19916;-65
2022/12/21 06:03:35;;;;;;;;;;;20.80;56.70;;;;;;5088142;28;19923;-65
2022/12/21 06:06:02;;;;;;;;;;;20.80;57.70;;;;;;5095626;28;19916;-65
2022/12/21 06:08:30;;;;;;;;;;;20.90;57.20;;;;;;5110082;28;19972;-65
2022/12/21 06:10:57;;;;;;;;;;;20.80;57.20;;;;;;5097980;28;19919;-65
2022/12/21 06:13:23;;;;;;;;;;;20.80;56.90;;;;;;5101752;28;19916;-65
2022/12/21 06:15:50;;;;;;;;;;;20.80;56.60;;;;;;5110431;28;19912;-65
2022/12/21 06:18:16;;;;;;;;;;;20.80;56.70;;;;;;5104632;28;19921;-64
2022/12/21 06:20:45;;;;;;;;;;;20.80;56.50;;;;;;5098807;28;19988;-65
2022/12/21 06:23:12;;;;;;;;;;;20.80;56.90;;;;;;5086365;28;19912;-65
2022/12/21 06:25:38;;;;;;;;;;;20.80;57.30;;;;;;5099803;28;20019;-64
2022/12/21 06:28:05;;;;;;;;;;;20.80;57.40;;;;;;5072821;28;19924;-65
2022/12/21 06:30:32;;;;;;;;;;;20.80;58.20;;;;;;5088576;28;20297;-65
2022/12/21 06:32:58;;;;;;;;;;;20.70;58.40;;;;;;5089225;28;20409;-66
2022/12/21 06:35:25;;;;;;;;;;;20.70;59.00;;;;;;5089478;28;19912;-66
2022/12/21 06:37:52;;;;;;;;;;;20.70;58.00;;;;;;5089316;28;19923;-66
2022/12/21 06:40:18;;;;;;;;;;;20.60;57.70;;;;;;5087486;28;19916;-67
2022/12/21 06:42:45;;;;;;;;;;;20.60;57.80;;;;;;5088969;28;20340;-66
2022/12/21 06:45:12;;;;;;;;;;;20.60;58.20;;;;;;5089012;28;19912;-65
2022/12/21 06:47:38;;;;;;;;;;;20.70;58.30;;;;;;5067471;28;19921;-66
2022/12/21 06:50:05;;;;;;;;;;;20.60;58.90;;;;;;5076204;28;19924;-65
2022/12/21 06:52:33;;;;;;;;;;;20.60;59.50;;;;;;5086581;28;20306;-65
2022/12/21 06:55:00;;;;;;;;;;;20.60;59.50;;;;;;5088958;28;20038;-65
2022/12/21 06:57:27;;;;;;;;;;;20.50;58.40;;;;;;5087967;28;19912;-64
2022/12/21 06:59:53;;;;;;;;;;;20.30;58.70;;;;;;5074412;28;19924;-64
2022/12/21 07:02:20;;;;;;;;;;;20.30;59.10;;;;;;5083367;28;19912;-65
2022/12/21 07:04:47;;;;;;;;;;;20.30;58.20;;;;;;5088738;28;19927;-65
2022/12/21 07:07:13;;;;;;;;;;;20.30;59.30;;;;;;5089328;28;20021;-65
2022/12/21 07:09:40;;;;;;;;;;;20.30;60.00;;;;;;5088338;28;20318;-64
2022/12/21 07:12:06;;;;;;;;;;;20.30;59.70;;;;;;5082555;28;19918;-63
2022/12/21 07:14:33;;;;;;;;;;;20.20;59.60;;;;;;5088178;28;20297;-65
2022/12/21 07:17:00;;;;;;;;;;;20.20;60.60;;;;;;5089555;28;19955;-65
2022/12/21 07:19:29;;;;;;;;;;;20.20;60.70;;;;;;5087888;28;19912;-65
2022/12/21 07:21:56;;;;;;;;;;;20.20;60.60;;;;;;5080924;28;19958;-65
2022/12/21 07:24:22;;;;;;;;;;;20.10;60.90;;;;;;5092926;28;19947;-65
2022/12/21 07:26:49;;;;;;;;;;;20.20;61.00;;;;;;5101196;28;20014;-65
2022/12/21 07:29:15;;;;;;;;;;;20.20;61.60;;;;;;5111348;28;19918;-64
2022/12/21 07:31:42;;;;;;;;;;;20.10;61.70;;;;;;5099557;28;19919;-64
2022/12/21 07:34:09;;;;;;;;;;;20.10;61.40;;;;;;5112869;28;19915;-66
2022/12/21 07:36:35;;;;;;;;;;;20.10;62.00;;;;;;5112604;28;19912;-65
2022/12/21 07:39:02;;;;;;;;;;;20.10;62.10;;;;;;5112109;28;20324;-64
2022/12/21 07:41:28;;;;;;;;;;;20.10;62.70;;;;;;5111094;28;19912;-64
2022/12/21 07:43:55;;;;;;;;;;;20.10;62.30;;;;;;5112858;28;19922;-64
2022/12/21 07:46:22;;;;;;;;;;;20.00;61.80;;;;;;5113129;28;19920;-64
2022/12/21 07:48:49;;;;;;;;;;;20.00;62.00;;;;;;5112041;28;19923;-64
2022/12/21 07:51:16;;;;;;;;;;;19.90;60.80;;;;;;5084881;28;19916;-64
2022/12/21 07:53:42;;;;;;;;;;;19.90;60.80;;;;;;5105526;28;19915;-64
2022/12/21 07:56:13;;;;;;;;;;;19.90;60.00;;;;;;5105120;28;20381;-64
2022/12/21 07:58:39;;;;;;;;;;;19.80;60.90;;;;;;5094914;28;19916;-64
2022/12/21 08:01:09;;;;;;;;;;;19.80;61.80;;;;;;5110919;28;19916;-64
2022/12/21 10:00:54;;;;;;;;;;;19.10;65.60;;;;;;5108196;27;20037;-65
2022/12/21 10:03:30;;;;;;;;;;;19.10;65.70;;;;;;5046798;28;20308;-66
2022/12/21 10:06:12;;;;;;;;;;;19.10;65.80;;;;;;5030622;28;19917;-66
2022/12/21 10:08:57;;;;;;;;;;;19.10;66.00;;;;;;5049166;28;21169;-66
2022/12/21 10:11:32;;;;;;;;;;;19.10;65.80;;;;;;5048787;28;19913;-65
2022/12/21 10:14:18;;;;;;;;;;;19.10;66.00;;;;;;5027187;28;19916;-64
2022/12/21 10:16:54;;;;;;;;;;;19.00;66.00;;;;;;5041642;28;19913;-63
2022/12/21 10:19:26;;;;;;;;;;;19.00;65.80;;;;;;5025824;28;19923;-63
2022/12/21 10:22:10;;;;;;;;;;;19.00;66.10;;;;;;5019537;28;20322;-65
2022/12/21 10:24:42;;;;;;;;;;;19.00;66.00;;;;;;5038911;28;20008;-64
2022/12/21 10:27:11;;;;;;;;;;;19.00;65.70;;;;;;5048543;28;20041;-65
2022/12/21 10:29:38;;;;;;;;;;;18.90;65.90;;;;;;5030733;28;19909;-64
2022/12/21 10:32:05;;;;;;;;;;;18.90;66.00;;;;;;5029263;28;19956;-66
2022/12/21 10:34:32;;;;;;;;;;;18.90;66.30;;;;;;5030837;28;20461;-66
2022/12/21 10:37:03;;;;;;;;;;;18.90;66.30;;;;;;5027669;28;20311;-67
2022/12/21 10:39:30;;;;;;;;;;;18.90;66.40;;;;;;5035477;28;19963;-68
2022/12/21 10:42:03;;;;;;;;;;;18.90;66.50;;;;;;5031130;28;19999;-67
2022/12/21 10:44:30;;;;;;;;;;;18.90;66.70;;;;;;5045276;28;19948;-67
2022/12/21 10:46:56;;;;;;;;;;;18.90;66.90;;;;;;5031711;28;19979;-67
2022/12/21 10:49:27;;;;;;;;;;;18.90;67.10;;;;;;5045532;28;19920;-67
2022/12/21 10:51:54;;;;;;;;;;;18.90;67.40;;;;;;5037396;28;19959;-67
2022/12/21 10:54:27;;;;;;;;;;;18.80;67.30;;;;;;5041096;28;20007;-67
2022/12/21 10:56:54;;;;;;;;;;;18.80;67.60;;;;;;5055352;28;19912;-67
2022/12/21 10:59:20;;;;;;;;;;;18.80;67.50;;;;;;5055575;28;19955;-67
2022/12/21 11:01:47;;;;;;;;;;;18.80;67.50;;;;;;5061153;28;19929;-66
2022/12/21 11:04:17;;;;;;;;;;;18.80;67.80;;;;;;5043426;28;19928;-67
2022/12/21 11:07:02;;;;;;;;;;;18.80;68.20;;;;;;5074718;28;20019;-68
2022/12/21 11:09:35;;;;;;;;;;;18.80;68.50;;;;;;5075343;28;19909;-67
2022/12/21 11:12:15;;;;;;;;;;;18.80;68.60;;;;;;5073515;28;19916;-67
2022/12/21 11:14:42;;;;;;;;;;;18.80;68.80;;;;;;5066936;28;19917;-67
2022/12/21 11:17:16;;;;;;;;;;;18.80;69.00;;;;;;5074765;28;19908;-67
2022/12/21 11:19:43;;;;;;;;;;;18.80;69.00;;;;;;5073487;28;19908;-67
2022/12/21 11:22:10;;;;;;;;;;;18.80;68.90;;;;;;5072484;28;19919;-67
2022/12/21 11:24:40;;;;;;;;;;;18.80;69.00;;;;;;5055820;28;20264;-67
2022/12/21 11:27:13;;;;;;;;;;;18.80;69.00;;;;;;5036233;28;20016;-67
2022/12/21 11:30:00;;;;;;;;;;;18.80;69.10;;;;;;5066533;28;19909;-67
2022/12/21 11:32:29;;;;;;;;;;;18.70;69.40;;;;;;5066098;28;19964;-67
2022/12/21 11:35:02;;;;;;;;;;;18.70;69.20;;;;;;5062025;28;19919;-67
2022/12/21 11:37:38;;;;;;;;;;;18.80;69.20;;;;;;5074937;28;20278;-67
2022/12/21 11:40:11;;;;;;;;;;;18.70;69.10;;;;;;5074367;28;19908;-68
2022/12/21 11:42:54;;;;;;;;;;;18.70;69.00;;;;;;5066485;28;19913;-67
2022/12/21 11:45:21;;;;;;;;;;;18.70;69.10;;;;;;5053934;28;19959;-67
2022/12/21 11:48:00;;;;;;;;;;;18.70;69.20;;;;;;5074804;28;20398;-67
2022/12/21 11:50:45;;;;;;;;;;;18.70;69.30;;;;;;5056437;28;19919;-67
2022/12/21 11:53:22;;;;;;;;;;;18.60;69.50;;;;;;5073491;28;19927;-67
2022/12/21 11:55:54;;;;;;;;;;;18.60;69.30;;;;;;5053371;28;19970;-67
2022/12/21 11:58:32;;;;;;;;;;;18.60;69.30;;;;;;5074484;28;19995;-67
2022/12/21 12:01:16;;;;;;;;;;;18.60;69.50;;;;;;5055535;28;20341;-67
2022/12/21 12:04:15;;;;;;;;;;;18.50;69.40;;;;;;5076505;28;19920;-67
2022/12/21 12:06:45;;;;;;;;;;;18.50;69.80;;;;;;5069347;28;19959;-67
2022/12/21 12:09:32;;;;;;;;;;;18.50;69.80;;;;;;5115035;28;20116;-67
2022/12/21 12:12:00;;;;;;;;;;;18.50;69.90;;;;;;5069072;28;19916;-67
2022/12/21 12:14:27;;;;;;;;;;;18.50;70.00;;;;;;5076309;28;20358;-67
2022/12/21 12:16:54;;;;;;;;;;;18.40;70.00;;;;;;5114675;28;19912;-67
2022/12/21 12:19:34;;;;;;;;;;;18.40;70.10;;;;;;5114578;28;19922;-67
2022/12/21 12:22:08;;;;;;;;;;;18.40;70.30;;;;;;5084803;28;19915;-67
2022/12/21 12:24:34;;;;;;;;;;;18.40;70.30;;;;;;5077262;28;19912;-67
2022/12/21 12:27:20;;;;;;;;;;;18.40;70.00;;;;;;5114755;28;19924;-67
2022/12/21 12:29:47;;;;;;;;;;;18.40;69.80;;;;;;5096616;28;20254;-67
2022/12/21 12:32:16;;;;;;;;;;;18.40;70.10;;;;;;5111376;28;19908;-67
2022/12/21 12:34:58;;;;;;;;;;;18.40;70.20;;;;;;5111332;27;19912;-67
2022/12/21 12:37:43;;;;;;;;;;;18.40;70.30;;;;;;5115402;27;19912;-67
2022/12/21 12:40:21;;;;;;;;;;;18.40;70.30;;;;;;5116768;27;20363;-67
2022/12/21 12:42:51;;;;;;;;;;;18.40;70.30;;;;;;5113412;28;19912;-67
2022/12/21 12:45:41;;;;;;;;;;;18.30;70.60;;;;;;5094912;28;20330;-67
2022/12/21 12:48:08;;;;;;;;;;;18.40;71.00;;;;;;5103546;27;19916;-67
2022/12/21 12:50:37;;;;;;;;;;;18.30;70.90;;;;;;5115124;27;20392;-67
2022/12/21 12:53:18;;;;;;;;;;;18.30;71.20;;;;;;5111857;28;20012;-67
2022/12/21 12:55:57;;;;;;;;;;;18.30;71.20;;;;;;5094434;28;20005;-67
2022/12/21 12:58:30;;;;;;;;;;;18.30;71.20;;;;;;5095503;28;19911;-67
2022/12/21 13:01:26;;;;;;;;;;;18.30;71.20;;;;;;5119680;27;20324;-67
2022/12/21 13:03:58;;;;;;;;;;;18.30;71.40;;;;;;5093135;27;19928;-67
2022/12/21 13:06:33;;;;;;;;;;;18.40;71.70;;;;;;5109226;28;20018;-67
2022/12/21 13:09:00;;;;;;;;;;;18.30;71.60;;;;;;5095501;28;19964;-67
2022/12/21 13:11:45;;;;;;;;;;;18.30;71.70;;;;;;5117262;27;19908;-67
2022/12/21 13:14:14;;;;;;;;;;;18.30;71.70;;;;;;5117290;27;20435;-67
2022/12/21 13:16:43;;;;;;;;;;;18.30;71.70;;;;;;5119018;27;19916;-67
2022/12/21 13:19:11;;;;;;;;;;;18.30;71.90;;;;;;5091620;28;20014;-67
2022/12/21 13:21:38;;;;;;;;;;;18.30;72.00;;;;;;5094276;28;19908;-67
2022/12/21 13:24:05;;;;;;;;;;;18.30;72.20;;;;;;5094424;28;19908;-67
2022/12/21 13:26:50;;;;;;;;;;;18.30;72.30;;;;;;5118026;27;19916;-67
2022/12/21 13:29:27;;;;;;;;;;;18.30;72.50;;;;;;5126282;27;20284;-67
2022/12/21 13:31:59;;;;;;;;;;;18.20;72.80;;;;;;5110602;27;19969;-67
2022/12/21 13:34:32;;;;;;;;;;;18.30;72.60;;;;;;5100649;28;19912;-67
2022/12/21 13:37:00;;;;;;;;;;;18.30;72.80;;;;;;5121747;27;19912;-67
2022/12/21 13:39:38;;;;;;;;;;;18.20;73.00;;;;;;5102816;28;19907;-67
2022/12/21 13:42:07;;;;;;;;;;;18.20;72.90;;;;;;5123450;27;19908;-67
2022/12/21 13:44:35;;;;;;;;;;;18.20;73.20;;;;;;5094846;28;19919;-67
2022/12/21 13:47:01;;;;;;;;;;;18.20;73.40;;;;;;5100511;28;19978;-67
2022/12/21 13:49:34;;;;;;;;;;;18.20;73.60;;;;;;5094717;28;19907;-67
2022/12/21 13:52:21;;;;;;;;;;;18.20;73.80;;;;;;5115101;27;19911;-67
2022/12/21 13:54:51;;;;;;;;;;;18.10;73.80;;;;;;5095187;27;19912;-67
2022/12/21 13:57:22;;;;;;;;;;;18.10;73.90;;;;;;5111927;27;19912;-67
2022/12/21 14:00:07;;;;;;;;;;;18.00;74.00;;;;;;5094366;28;19908;-67
2022/12/21 14:02:40;;;;;;;;;;;18.00;74.20;;;;;;5118347;27;20418;-68
2022/12/21 14:37:10;;;;;;;;;;;17.70;75.10;;;;;;5075423;28;20309;-67
2022/12/21 14:39:38;;;;;;;;;;;17.70;75.20;;;;;;5091459;28;19920;-67
2022/12/21 14:42:39;;;;;;;;;;;17.70;75.20;;;;;;5091466;28;19991;-67
2022/12/21 14:45:12;;;;;;;;;;;17.60;75.30;;;;;;4989742;28;19910;-67
2022/12/21 14:47:39;;;;;;;;;;;17.60;75.20;;;;;;5074569;28;19924;-67
2022/12/21 14:50:12;;;;;;;;;;;17.60;75.30;;;;;;5073363;28;19916;-66
2022/12/21 14:52:42;;;;;;;;;;;17.60;75.30;;;;;;5071852;28;19916;-67
2022/12/21 14:55:29;;;;;;;;;;;17.60;75.30;;;;;;5073241;28;20012;-67
2022/12/21 14:57:55;;;;;;;;;;;17.50;75.40;;;;;;5090526;28;20359;-67
2022/12/21 15:00:23;;;;;;;;;;;17.60;75.40;;;;;;5073113;28;20007;-67
2022/12/21 15:02:53;;;;;;;;;;;17.50;75.50;;;;;;5072811;28;19915;-67
2022/12/21 15:05:25;;;;;;;;;;;17.50;75.60;;;;;;5070536;28;20267;-67
2022/12/21 15:07:55;;;;;;;;;;;17.50;75.80;;;;;;5089408;28;19916;-67
2022/12/21 15:10:26;;;;;;;;;;;17.50;75.80;;;;;;5090851;28;20385;-67
2022/12/21 15:12:53;;;;;;;;;;;17.50;75.90;;;;;;5091128;28;19912;-67
2022/12/21 15:15:36;;;;;;;;;;;17.50;75.80;;;;;;5091247;28;19908;-67
2022/12/21 15:18:20;;;;;;;;;;;17.50;75.80;;;;;;5073441;28;19923;-68
2022/12/21 15:20:47;;;;;;;;;;;17.40;75.90;;;;;;5088226;28;20003;-67
2022/12/21 15:23:15;;;;;;;;;;;17.50;75.70;;;;;;5073113;28;20008;-67
2022/12/21 15:25:42;;;;;;;;;;;17.40;75.60;;;;;;5072921;28;19920;-67
2022/12/21 15:28:14;;;;;;;;;;;17.40;75.50;;;;;;5072721;28;19974;-67
2022/12/21 15:30:41;;;;;;;;;;;17.30;75.60;;;;;;5091098;28;19908;-67
2022/12/21 15:33:17;;;;;;;;;;;17.30;75.50;;;;;;5072878;28;19908;-67
2022/12/21 15:35:44;;;;;;;;;;;17.30;75.70;;;;;;5074185;28;19978;-67
2022/12/21 15:38:14;;;;;;;;;;;17.30;75.40;;;;;;5075182;28;20006;-67
2022/12/21 15:40:41;;;;;;;;;;;17.30;75.60;;;;;;5092016;28;20333;-67
2022/12/21 15:43:17;;;;;;;;;;;17.30;75.80;;;;;;5076508;28;19961;-67
2022/12/21 15:45:57;;;;;;;;;;;17.30;75.90;;;;;;5076318;28;19919;-67
2022/12/21 15:48:30;;;;;;;;;;;17.30;76.10;;;;;;5076241;28;20456;-67
2022/12/21 15:51:00;;;;;;;;;;;17.30;76.20;;;;;;5074986;28;20354;-67
2022/12/21 15:53:27;;;;;;;;;;;17.30;76.30;;;;;;5076673;28;20388;-67
2022/12/21 15:55:55;;;;;;;;;;;17.30;76.40;;;;;;5091712;28;19909;-67
2022/12/21 15:58:41;;;;;;;;;;;17.30;76.50;;;;;;5076384;28;19908;-67
2022/12/21 16:01:11;;;;;;;;;;;17.30;76.40;;;;;;5092485;28;19908;-67
2022/12/21 16:03:39;;;;;;;;;;;17.30;76.40;;;;;;5093476;28;19919;-67
2022/12/21 16:06:12;;;;;;;;;;;17.30;76.50;;;;;;5094303;28;20271;-67
2022/12/21 16:08:39;;;;;;;;;;;17.20;76.40;;;;;;5093613;28;20023;-67
2022/12/21 16:11:06;;;;;;;;;;;17.30;76.60;;;;;;5073710;28;20385;-67
2022/12/21 16:13:37;;;;;;;;;;;17.20;76.90;;;;;;5073725;28;19927;-66
2022/12/21 16:16:07;;;;;;;;;;;17.20;77.10;;;;;;5091178;28;20006;-67
2022/12/21 16:18:35;;;;;;;;;;;17.20;77.30;;;;;;5076472;28;19908;-67
2022/12/21 16:21:03;;;;;;;;;;;17.20;77.50;;;;;;5075952;28;19912;-67
2022/12/21 16:23:40;;;;;;;;;;;17.20;77.70;;;;;;5076239;28;21054;-67
2022/12/21 16:26:07;;;;;;;;;;;17.20;77.80;;;;;;5093977;28;19916;-67
2022/12/21 16:28:35;;;;;;;;;;;17.20;77.90;;;;;;5093925;28;19969;-67
2022/12/21 16:31:22;;;;;;;;;;;17.20;78.00;;;;;;5093910;28;19963;-67
2022/12/21 16:33:53;;;;;;;;;;;17.20;78.10;;;;;;5093261;28;19929;-67
2022/12/21 16:36:24;;;;;;;;;;;17.10;78.20;;;;;;5076069;28;20011;-67
2022/12/21 16:38:50;;;;;;;;;;;17.10;78.40;;;;;;5093971;28;20346;-68
2022/12/21 16:41:17;;;;;;;;;;;17.10;78.50;;;;;;5093383;28;20401;-67
2022/12/21 16:43:47;;;;;;;;;;;17.00;78.60;;;;;;5075789;28;20050;-68
2022/12/21 16:46:14;;;;;;;;;;;17.00;78.80;;;;;;5075864;28;19920;-67
2022/12/21 16:48:44;;;;;;;;;;;17.00;78.80;;;;;;5076128;28;19916;-67
2022/12/21 16:51:30;;;;;;;;;;;17.00;78.80;;;;;;5080608;28;19912;-67
2022/12/21 16:53:57;;;;;;;;;;;17.00;78.90;;;;;;5075952;28;19935;-67
2022/12/21 16:56:30;;;;;;;;;;;17.00;78.90;;;;;;5094059;28;19912;-67
2022/12/21 16:58:59;;;;;;;;;;;17.00;79.00;;;;;;5075839;28;20389;-67
2022/12/21 17:01:39;;;;;;;;;;;16.90;79.20;;;;;;5093597;28;20369;-68
2022/12/21 17:04:25;;;;;;;;;;;16.90;79.10;;;;;;5091480;28;19916;-67
2022/12/21 17:06:58;;;;;;;;;;;16.90;79.30;;;;;;5075752;28;19931;-67
2022/12/21 17:09:26;;;;;;;;;;;16.90;79.10;;;;;;5071758;28;20393;-67
2022/12/21 17:39:56;;;;;;;;;;;17.00;79.00;;;;;;5068949;28;19970;-67
2022/12/21 17:42:22;;;;;;;;;;;17.00;79.10;;;;;;5067415;28;19979;-67
2022/12/21 17:44:49;;;;;;;;;;;16.90;79.00;;;;;;5039188;28;20516;-67
2022/12/21 17:47:18;;;;;;;;;;;16.90;79.10;;;;;;5071504;28;19944;-67
2022/12/21 17:49:44;;;;;;;;;;;17.00;78.90;;;;;;5053374;28;20354;-68
2022/12/21 17:52:11;;;;;;;;;;;16.90;78.90;;;;;;5062389;28;19912;-67
2022/12/21 17:54:38;;;;;;;;;;;16.90;79.30;;;;;;5059400;28;19971;-67
2022/12/21 17:57:12;;;;;;;;;;;16.90;79.40;;;;;;5071443;28;20358;-67
2022/12/21 17:59:38;;;;;;;;;;;16.90;79.70;;;;;;5052959;28;19908;-68
2022/12/21 18:02:10;;;;;;;;;;;16.80;79.80;;;;;;5053154;28;19967;-67
2022/12/21 18:04:37;;;;;;;;;;;16.90;79.80;;;;;;5033335;28;19940;-67
2022/12/21 18:07:05;;;;;;;;;;;16.80;79.60;;;;;;5070975;28;19919;-67
2022/12/21 18:09:31;;;;;;;;;;;16.80;79.50;;;;;;5053674;28;20354;-67
2022/12/21 18:11:58;;;;;;;;;;;16.80;79.60;;;;;;5054762;28;19912;-67
2022/12/21 18:14:24;;;;;;;;;;;16.80;79.60;;;;;;5044123;28;19944;-67
2022/12/21 18:16:51;;;;;;;;;;;16.80;79.50;;;;;;5058672;28;19948;-67
2022/12/21 18:19:18;;;;;;;;;;;16.70;79.40;;;;;;5071259;28;20298;-66
2022/12/21 18:21:44;;;;;;;;;;;16.70;79.20;;;;;;5061343;28;19920;-67
2022/12/21 18:24:11;;;;;;;;;;;16.70;79.20;;;;;;5057513;28;19913;-67
2022/12/21 18:26:38;;;;;;;;;;;16.70;79.30;;;;;;5059394;28;19908;-66
2022/12/21 18:29:04;;;;;;;;;;;16.80;79.30;;;;;;5053948;28;19923;-66
2022/12/21 18:31:32;;;;;;;;;;;16.80;79.10;;;;;;5033332;28;19916;-65
2022/12/21 18:33:59;;;;;;;;;;;16.80;79.20;;;;;;5049053;28;19944;-65
2022/12/21 18:36:28;;;;;;;;;;;16.80;79.40;;;;;;5068033;28;20373;-66
2022/12/21 18:38:55;;;;;;;;;;;16.80;79.20;;;;;;5066109;28;19977;-65
2022/12/21 18:41:23;;;;;;;;;;;16.70;79.30;;;;;;4966373;28;3206935;-66
2022/12/21 18:43:49;;;;;;;;;;;16.70;79.50;;;;;;5087303;28;19915;-65
2022/12/21 18:46:16;;;;;;;;;;;16.70;79.40;;;;;;5091506;28;19934;-65
2022/12/21 18:48:43;;;;;;;;;;;16.70;79.50;;;;;;5121053;28;19930;-65
2022/12/21 18:51:13;;;;;;;;;;;16.70;79.50;;;;;;5129678;27;19911;-65
2022/12/21 18:53:39;;;;;;;;;;;16.70;79.40;;;;;;5081808;28;20685;-66
2022/12/21 18:56:09;;;;;;;;;;;16.80;79.50;;;;;;5112946;28;20258;-66
2022/12/21 18:58:38;;;;;;;;;;;16.70;79.40;;;;;;5091128;28;20519;-67
2022/12/21 19:01:31;;;;;;;;;;;16.70;79.30;;;;;;5108947;28;20472;-67
2022/12/21 19:03:57;;;;;;;;;;;16.70;79.00;;;;;;5104637;28;20266;-66